createdAt,value
2022-12-09T00:00:11.860Z,19.10
2022-12-09T00:04:15.081Z,18.77
2022-12-09T00:08:15.452Z,18.60
2022-12-09T00:12:15.606Z,18.30
2022-12-09T00:16:17.666Z,17.57
2022-12-09T00:20:20.386Z,17.87
2022-12-09T00:24:20.477Z,18.07
2022-12-09T00:28:20.807Z,19.37
2022-12-09T00:32:21.243Z,18.60
2022-12-09T00:36:26.226Z,18.80
2022-12-09T00:40:26.566Z,19.67
2022-12-09T00:44:26.711Z,18.87
2022-12-09T00:48:27.313Z,18.83
2022-12-09T00:52:30.049Z,18.60
2022-12-09T00:56:33.257Z,19.77
2022-12-09T01:00:34.076Z,19.60
2022-12-09T01:04:34.449Z,17.07
2022-12-09T01:08:39.322Z,20.57
2022-12-09T01:12:39.802Z,18.33
2022-12-09T01:16:42.451Z,17.53
2022-12-09T01:20:43.425Z,18.93
2022-12-09T01:24:47.979Z,18.80
2022-12-09T01:28:52.522Z,20.53
2022-12-09T01:32:53.311Z,18.63
2022-12-09T01:36:53.955Z,20.97
2022-12-09T01:40:56.698Z,20.13
2022-12-09T01:45:40.748Z,20.00
2022-12-09T01:49:48.284Z,22.60
2022-12-09T01:53:53.939Z,22.33
2022-12-09T01:57:57.122Z,21.63
2022-12-09T02:02:03.408Z,22.43
2022-12-09T02:06:03.780Z,21.33
2022-12-09T02:10:08.946Z,22.40
2022-12-09T02:14:23.780Z,21.30
2022-12-09T02:18:39.138Z,22.03
2022-12-09T02:22:46.092Z,19.03
2022-12-09T02:26:56.337Z,17.77
2022-12-09T02:31:20.481Z,24.77
2022-12-09T02:35:30.459Z,25.00
2022-12-09T02:39:39.377Z,21.20
2022-12-09T02:43:50.353Z,26.93
2022-12-09T02:47:58.228Z,19.77
2022-12-09T02:52:02.484Z,18.60
2022-12-09T02:56:06.818Z,19.53
2022-12-09T03:00:11.296Z,24.17
2022-12-09T03:04:19.899Z,21.53
2022-12-09T03:08:38.973Z,23.33
2022-12-09T03:12:43.900Z,23.03
2022-12-09T03:16:52.607Z,25.00
2022-12-09T03:20:54.261Z,25.13
2022-12-09T03:25:04.289Z,28.47
2022-12-09T03:29:10.054Z,35.17
2022-12-09T03:33:12.427Z,31.17
2022-12-09T03:37:18.339Z,26.43
2022-12-09T03:41:30.996Z,33.60
2022-12-09T03:45:31.858Z,26.80
2022-12-09T03:49:32.578Z,25.27
2022-12-09T03:53:41.450Z,29.93
2022-12-09T03:57:48.573Z,26.37
2022-12-09T04:01:50.206Z,26.80
2022-12-09T04:05:50.484Z,26.60
2022-12-09T04:09:50.850Z,26.23
2022-12-09T04:13:53.558Z,22.53
2022-12-09T04:17:54.053Z,28.33
2022-12-09T04:21:54.374Z,24.13
2022-12-09T04:25:54.819Z,28.90
2022-12-09T04:29:57.952Z,23.67
2022-12-09T04:33:59.835Z,25.53
2022-12-09T04:38:02.776Z,24.70
2022-12-09T04:42:03.257Z,22.50
2022-12-09T04:46:09.005Z,22.97
2022-12-09T04:50:11.364Z,21.30
2022-12-09T04:54:16.739Z,21.77
2022-12-09T04:58:16.881Z,21.17
2022-12-09T05:02:19.854Z,20.93
2022-12-09T05:06:22.083Z,21.07
2022-12-09T05:10:22.838Z,23.43
2022-12-09T05:14:23.198Z,22.23
2022-12-09T05:18:26.022Z,21.60
2022-12-09T05:22:27.169Z,22.23
2022-12-09T05:26:27.759Z,22.37
2022-12-09T05:30:28.300Z,20.17
2022-12-09T05:34:32.035Z,21.30
2022-12-09T05:38:33.537Z,22.03
2022-12-09T05:42:40.966Z,19.60
2022-12-09T05:46:41.953Z,20.57
2022-12-09T05:50:45.024Z,20.03
2022-12-09T05:54:45.426Z,18.83
2022-12-09T05:58:46.221Z,21.07
2022-12-09T06:02:46.984Z,19.70
2022-12-09T06:06:50.040Z,20.73
2022-12-09T06:10:50.399Z,19.57
2022-12-09T06:14:51.006Z,20.07
2022-12-09T06:18:52.592Z,19.93
2022-12-09T06:22:55.827Z,20.23
2022-12-09T06:26:56.856Z,19.47
2022-12-09T06:31:00.019Z,17.83
2022-12-09T06:35:01.311Z,17.53
2022-12-09T06:39:10.564Z,19.87
2022-12-09T06:43:11.302Z,19.30
2022-12-09T06:47:11.883Z,19.13
2022-12-09T06:51:12.810Z,17.93
2022-12-09T06:55:16.855Z,17.97
2022-12-09T06:59:17.505Z,19.13
2022-12-09T07:03:18.051Z,18.97
2022-12-09T07:07:19.120Z,19.00
2022-12-09T07:11:22.720Z,20.30
2022-12-09T07:15:23.524Z,20.63
2022-12-09T07:19:26.312Z,20.20
2022-12-09T07:23:27.191Z,20.60
2022-12-09T07:27:29.933Z,21.60
2022-12-09T07:31:32.018Z,21.20
2022-12-09T07:35:33.045Z,21.73
2022-12-09T07:39:33.631Z,21.60
2022-12-09T07:43:36.760Z,19.50
2022-12-09T07:47:37.475Z,18.30
2022-12-09T07:51:38.223Z,19.83
2022-12-09T07:55:38.647Z,19.93
2022-12-09T07:59:41.592Z,19.90
2022-12-09T08:03:43.477Z,19.87
2022-12-09T08:07:44.710Z,19.03
2022-12-09T08:11:46.205Z,18.73
2022-12-09T08:15:49.421Z,17.60
2022-12-09T08:19:50.159Z,17.07
2022-12-09T08:23:51.526Z,17.47
2022-12-09T08:27:52.070Z,16.20
2022-12-09T08:31:55.390Z,14.73
2022-12-09T08:35:56.424Z,15.43
2022-12-09T08:39:56.619Z,13.57
2022-12-09T08:43:57.022Z,14.20
2022-12-09T08:48:00.320Z,13.33
2022-12-09T08:52:01.174Z,12.17
2022-12-09T08:56:02.034Z,11.77
2022-12-09T09:00:02.224Z,11.77
2022-12-09T09:04:10.667Z,11.43
2022-12-09T09:08:11.155Z,11.50
2022-12-09T09:12:11.502Z,11.40
2022-12-09T09:16:14.942Z,12.07
2022-12-09T09:20:18.425Z,11.20
2022-12-09T09:24:22.937Z,11.30
2022-12-09T09:28:28.978Z,12.50
2022-12-09T09:32:32.885Z,12.10
2022-12-09T09:36:36.856Z,10.70
2022-12-09T09:40:37.427Z,10.80
2022-12-09T09:44:43.255Z,11.33
2022-12-09T09:48:43.937Z,10.60
2022-12-09T09:52:46.779Z,10.93
2022-12-09T09:56:56.704Z,10.43
2022-12-09T10:01:06.622Z,10.57
2022-12-09T10:05:23.123Z,10.20
2022-12-09T10:09:39.790Z,10.30
2022-12-09T10:13:56.282Z,10.67
2022-12-09T10:18:14.524Z,10.67
2022-12-09T10:22:19.538Z,10.83
2022-12-09T10:26:30.299Z,10.40
2022-12-09T10:30:37.271Z,10.53
2022-12-09T10:34:42.609Z,10.40
2022-12-09T10:38:46.034Z,10.17
2022-12-09T10:43:05.584Z,9.70
2022-12-09T10:47:08.254Z,9.80
2022-12-09T10:51:17.605Z,9.63
2022-12-09T10:55:32.876Z,9.70
2022-12-09T10:59:38.136Z,8.67
2022-12-09T11:03:43.330Z,8.40
2022-12-09T11:07:51.315Z,9.30
2022-12-09T11:11:53.580Z,9.07
2022-12-09T11:16:01.621Z,9.10
2022-12-09T11:20:23.296Z,8.80
2022-12-09T11:24:25.456Z,8.60
2022-12-09T11:28:31.988Z,7.87
2022-12-09T11:32:35.638Z,7.90
2022-12-09T11:36:43.988Z,7.43
2022-12-09T11:40:44.644Z,8.73
2022-12-09T11:44:53.521Z,6.87
2022-12-09T11:49:03.448Z,7.67
2022-12-09T11:53:26.786Z,6.87
2022-12-09T11:57:37.421Z,7.60
2022-12-09T12:01:51.245Z,7.27
2022-12-09T12:05:58.788Z,6.83
2022-12-09T12:10:01.396Z,7.03
2022-12-09T12:14:09.384Z,6.90
2022-12-09T12:18:25.731Z,6.43
2022-12-09T12:23:08.402Z,6.83
2022-12-09T12:27:28.028Z,6.17
2022-12-09T12:32:07.263Z,6.67
2022-12-09T12:36:19.557Z,5.90
2022-12-09T12:40:39.422Z,6.23
2022-12-09T12:45:05.243Z,6.30
2022-12-09T12:49:42.253Z,6.27
2022-12-09T12:53:54.037Z,6.30
2022-12-09T12:58:09.646Z,7.53
2022-12-09T13:02:31.424Z,6.40
2022-12-09T13:06:43.910Z,7.33
2022-12-09T13:10:48.568Z,7.03
2022-12-09T13:14:56.855Z,6.80
2022-12-09T13:19:04.252Z,6.70
2022-12-09T13:23:14.915Z,7.17
2022-12-09T13:27:26.261Z,7.27
2022-12-09T13:31:33.602Z,7.13
2022-12-09T13:35:45.990Z,6.77
2022-12-09T13:40:01.243Z,6.97
2022-12-09T13:44:14.525Z,6.93
2022-12-09T13:48:47.332Z,8.10
2022-12-09T13:52:53.698Z,7.43
2022-12-09T13:57:21.099Z,7.77
2022-12-09T14:01:31.972Z,8.37
2022-12-09T14:05:39.569Z,9.13
2022-12-09T14:09:51.029Z,6.60
2022-12-09T14:13:51.908Z,6.60
2022-12-09T14:18:07.027Z,7.07
2022-12-09T14:22:41.932Z,6.80
2022-12-09T14:26:48.850Z,5.97
2022-12-09T14:30:54.991Z,6.97
2022-12-09T14:35:32.896Z,7.37
2022-12-09T14:39:47.722Z,7.57
2022-12-09T14:44:06.150Z,8.07
2022-12-09T14:48:14.055Z,8.20
2022-12-09T14:52:23.322Z,7.63
2022-12-09T14:56:29.118Z,8.60
2022-12-09T15:00:34.902Z,8.03
2022-12-09T15:04:39.407Z,10.10
2022-12-09T15:08:43.016Z,9.20
2022-12-09T15:12:50.060Z,10.87
2022-12-09T15:16:51.128Z,11.67
2022-12-09T15:20:55.675Z,9.90
2022-12-09T15:24:56.871Z,9.60
2022-12-09T15:29:05.257Z,10.23
2022-12-09T15:33:06.562Z,10.20
2022-12-09T15:37:09.371Z,8.97
2022-12-09T15:41:37.358Z,9.93
2022-12-09T15:45:46.006Z,11.13
2022-12-09T15:49:54.607Z,10.40
2022-12-09T15:54:01.271Z,9.90
2022-12-09T15:58:06.047Z,15.40
2022-12-09T16:02:12.761Z,10.77
2022-12-09T16:06:13.678Z,11.57
2022-12-09T16:10:18.099Z,13.17
2022-12-09T16:14:20.510Z,12.00
2022-12-09T16:18:27.747Z,11.90
2022-12-09T16:22:32.983Z,12.00
2022-12-09T16:26:37.906Z,11.93
2022-12-09T16:30:49.996Z,10.60
2022-12-09T16:34:55.490Z,11.30
2022-12-09T16:39:48.230Z,10.93
2022-12-09T16:44:21.465Z,10.43
2022-12-09T16:48:23.992Z,11.07
2022-12-09T16:52:27.592Z,11.63
2022-12-09T16:56:34.738Z,11.47
2022-12-09T17:00:35.010Z,11.27
2022-12-09T17:04:35.119Z,12.70
2022-12-09T17:08:37.352Z,11.73
2022-12-09T17:12:40.054Z,12.80
2022-12-09T17:16:40.915Z,11.27
2022-12-09T17:20:41.605Z,11.13
2022-12-09T17:24:42.502Z,17.67
2022-12-09T17:28:46.735Z,12.93
2022-12-09T17:32:46.962Z,12.37
2022-12-09T17:36:48.012Z,16.97
2022-12-09T17:40:48.396Z,12.93
2022-12-09T17:44:51.073Z,12.20
2022-12-09T17:48:51.308Z,12.13
2022-12-09T17:52:51.396Z,13.10
2022-12-09T17:56:51.530Z,14.80
2022-12-09T18:00:54.286Z,12.77
2022-12-09T18:04:54.645Z,12.23
2022-12-09T18:08:55.115Z,20.63
2022-12-09T18:12:55.203Z,13.13
2022-12-09T18:16:58.077Z,13.63
2022-12-09T18:21:03.015Z,11.03
2022-12-09T18:25:03.105Z,11.87
2022-12-09T18:29:03.424Z,11.20
2022-12-09T18:33:06.380Z,11.67
2022-12-09T18:37:06.706Z,12.40
2022-12-09T18:41:07.280Z,13.77
2022-12-09T18:45:08.748Z,13.10
2022-12-09T18:49:15.723Z,11.77
2022-12-09T18:53:15.804Z,14.33
2022-12-09T18:57:15.948Z,11.80
2022-12-09T19:01:23.996Z,12.37
2022-12-09T19:05:26.724Z,12.80
2022-12-09T19:09:31.843Z,11.07
2022-12-09T19:13:33.139Z,9.87
2022-12-09T19:17:33.441Z,10.03
2022-12-09T19:21:36.075Z,10.10
2022-12-09T19:25:36.179Z,10.80
2022-12-09T19:29:36.258Z,10.80
2022-12-09T19:33:36.377Z,10.53
2022-12-09T19:37:39.072Z,10.10
2022-12-09T19:41:40.469Z,9.93
2022-12-09T19:45:40.668Z,10.70
2022-12-09T19:49:42.154Z,10.57
2022-12-09T19:53:46.509Z,10.97
2022-12-09T19:57:46.574Z,11.20
2022-12-09T20:01:48.514Z,11.30
2022-12-09T20:05:54.139Z,11.50
2022-12-09T20:09:56.889Z,11.90
2022-12-09T20:13:59.537Z,12.00
2022-12-09T20:17:59.662Z,11.77
2022-12-09T20:21:59.823Z,12.13
2022-12-09T20:26:10.402Z,13.03
2022-12-09T20:30:12.893Z,12.70
2022-12-09T20:34:18.088Z,12.50
2022-12-09T20:38:18.223Z,20.73
2022-12-09T20:42:20.887Z,12.83
2022-12-09T20:46:24.728Z,12.60
2022-12-09T20:50:25.044Z,12.27
2022-12-09T20:54:25.992Z,14.07
2022-12-09T20:58:29.158Z,16.57
2022-12-09T21:02:29.467Z,13.00
2022-12-09T21:06:33.142Z,14.20
2022-12-09T21:10:33.447Z,16.60
2022-12-09T21:14:37.085Z,13.70
2022-12-09T21:18:39.541Z,14.43
2022-12-09T21:22:40.026Z,18.60
2022-12-09T21:26:41.165Z,14.50
2022-12-09T21:30:44.121Z,15.27
2022-12-09T21:34:44.672Z,15.03
2022-12-09T21:38:45.939Z,14.50
2022-12-09T21:42:46.359Z,15.17
2022-12-09T21:46:49.270Z,14.50
2022-12-09T21:50:57.470Z,14.97
2022-12-09T21:54:58.204Z,15.20
2022-12-09T21:59:00.827Z,15.73
2022-12-09T22:03:03.779Z,15.77
2022-12-09T22:07:03.854Z,16.10
2022-12-09T22:11:04.090Z,15.60
2022-12-09T22:15:04.586Z,16.07
2022-12-09T22:19:10.943Z,17.13
2022-12-09T22:23:11.437Z,16.83
2022-12-09T22:27:11.811Z,16.20
2022-12-09T22:31:13.668Z,16.40
2022-12-09T22:35:16.916Z,18.13
2022-12-09T22:39:19.228Z,16.33
2022-12-09T22:43:19.355Z,17.33
2022-12-09T22:47:19.601Z,17.00
2022-12-09T22:51:26.305Z,18.13
2022-12-09T22:55:26.457Z,16.60
2022-12-09T22:59:26.651Z,16.67
2022-12-09T23:03:27.429Z,16.23
2022-12-09T23:07:30.637Z,17.90
2022-12-09T23:11:31.714Z,17.33
2022-12-09T23:15:31.923Z,17.33
2022-12-09T23:19:32.000Z,17.33
2022-12-09T23:23:35.559Z,17.70
2022-12-09T23:27:35.629Z,16.90
2022-12-09T23:31:39.278Z,16.60
2022-12-09T23:35:41.173Z,16.80
2022-12-09T23:39:44.206Z,17.23
2022-12-09T23:43:45.073Z,16.30
2022-12-09T23:47:46.152Z,16.70
2022-12-09T23:51:46.692Z,17.20
2022-12-09T23:55:49.337Z,18.07
2022-12-09T23:59:49.923Z,17.93
